sensor_id;sensor_type;location;lat;lon;timestamp;pressure;altitude;pressure_sealevel;temperature;humidity
60019;BME280;45870;42.528;26.740;2023-03-21T00:00:37;99710.06;;;10.66;59.31
60019;BME280;45870;42.528;26.740;2023-03-21T00:03:03;99711.75;;;10.79;58.96
60019;BME280;45870;42.528;26.740;2023-03-21T00:05:31;99672.06;;;10.44;59.99
60019;BME280;45870;42.528;26.740;2023-03-21T00:07:56;99718.84;;;11.31;57.86
60019;BME280;45870;42.528;26.740;2023-03-21T00:10:23;99721.47;;;11.15;58.07
60019;BME280;45870;42.528;26.740;2023-03-21T00:12:48;99527.22;;;9.45;60.25
60019;BME280;45870;42.528;26.740;2023-03-21T00:15:24;99721.13;;;10.99;58.93
60019;BME280;45870;42.528;26.740;2023-03-21T00:17:57;99703.81;;;11.75;56.46
60019;BME280;45870;42.528;26.740;2023-03-21T00:20:30;99664.00;;;11.71;55.04
60019;BME280;45870;42.528;26.740;2023-03-21T00:22:59;99679.34;;;10.79;58.97
60019;BME280;45870;42.528;26.740;2023-03-21T00:25:26;99716.75;;;11.10;58.34
60019;BME280;45870;42.528;26.740;2023-03-21T00:27:52;99715.81;;;11.28;58.57
60019;BME280;45870;42.528;26.740;2023-03-21T00:30:18;99709.03;;;10.79;59.12
60019;BME280;45870;42.528;26.740;2023-03-21T00:32:45;99701.16;;;11.52;57.14
60019;BME280;45870;42.528;26.740;2023-03-21T00:35:11;99687.44;;;11.53;56.48
60019;BME280;45870;42.528;26.740;2023-03-21T00:37:37;99689.22;;;10.62;60.49
60019;BME280;45870;42.528;26.740;2023-03-21T00:40:04;99680.31;;;9.78;63.38
60019;BME280;45870;42.528;26.740;2023-03-21T00:42:37;99689.03;;;10.22;61.91
60019;BME280;45870;42.528;26.740;2023-03-21T00:45:03;99684.72;;;10.44;61.47
60019;BME280;45870;42.528;26.740;2023-03-21T00:47:34;99671.66;;;10.18;61.74
60019;BME280;45870;42.528;26.740;2023-03-21T00:50:00;99672.28;;;10.78;60.63
60019;BME280;45870;42.528;26.740;2023-03-21T00:52:25;99667.47;;;10.45;61.88
60019;BME280;45870;42.528;26.740;2023-03-21T00:54:51;99671.78;;;11.56;58.25
60019;BME280;45870;42.528;26.740;2023-03-21T00:57:17;99673.75;;;11.60;57.63
60019;BME280;45870;42.528;26.740;2023-03-21T00:59:43;99677.22;;;11.44;58.23
60019;BME280;45870;42.528;26.740;2023-03-21T01:02:09;99664.47;;;12.13;56.49
60019;BME280;45870;42.528;26.740;2023-03-21T01:04:41;99677.34;;;12.39;55.62
60019;BME280;45870;42.528;26.740;2023-03-21T01:07:07;99621.19;;;11.39;57.35
60019;BME280;45870;42.528;26.740;2023-03-21T01:09:32;99676.59;;;11.02;60.51
60019;BME280;45870;42.528;26.740;2023-03-21T01:11:58;99679.06;;;11.15;58.97
60019;BME280;45870;42.528;26.740;2023-03-21T01:14:24;99667.78;;;11.18;59.10
60019;BME280;45870;42.528;26.740;2023-03-21T01:16:51;99670.88;;;10.52;61.24
60019;BME280;45870;42.528;26.740;2023-03-21T01:19:18;99666.66;;;10.03;63.08
60019;BME280;45870;42.528;26.740;2023-03-21T01:21:44;99666.88;;;10.31;61.97
60019;BME280;45870;42.528;26.740;2023-03-21T01:24:10;99672.75;;;10.86;61.18
60019;BME280;45870;42.528;26.740;2023-03-21T01:26:36;99671.00;;;10.92;61.15
60019;BME280;45870;42.528;26.740;2023-03-21T01:29:03;99664.06;;;11.08;60.35
60019;BME280;45870;42.528;26.740;2023-03-21T01:31:29;99654.50;;;11.57;58.27
60019;BME280;45870;42.528;26.740;2023-03-21T01:33:54;99659.16;;;11.61;57.99
60019;BME280;45870;42.528;26.740;2023-03-21T01:36:22;99690.97;;;10.68;61.57
60019;BME280;45870;42.528;26.740;2023-03-21T01:38:48;99650.81;;;10.60;62.78
60019;BME280;45870;42.528;26.740;2023-03-21T01:43:53;99651.13;;;11.10;59.78
60019;BME280;45870;42.528;26.740;2023-03-21T01:46:45;99648.59;;;10.68;62.31
60019;BME280;45870;42.528;26.740;2023-03-21T01:49:28;99644.38;;;10.72;61.29
60019;BME280;45870;42.528;26.740;2023-03-21T01:52:04;99570.44;;;10.50;60.76
60019;BME280;45870;42.528;26.740;2023-03-21T01:54:33;99631.78;;;10.66;62.15
60019;BME280;45870;42.528;26.740;2023-03-21T01:57:05;99632.47;;;11.08;61.34
60019;BME280;45870;42.528;26.740;2023-03-21T01:59:42;99632.19;;;11.10;61.40
60019;BME280;45870;42.528;26.740;2023-03-21T02:02:12;99612.94;;;11.06;60.30
60019;BME280;45870;42.528;26.740;2023-03-21T02:04:42;99590.63;;;11.67;58.02
60019;BME280;45870;42.528;26.740;2023-03-21T02:07:32;99641.41;;;12.77;55.81
60019;BME280;45870;42.528;26.740;2023-03-21T02:10:04;99646.06;;;13.03;54.60
60019;BME280;45870;42.528;26.740;2023-03-21T02:12:33;99621.56;;;11.88;58.00
60019;BME280;45870;42.528;26.740;2023-03-21T02:15:00;99646.13;;;11.58;59.78
60019;BME280;45870;42.528;26.740;2023-03-21T02:17:55;99647.41;;;12.12;58.34
60019;BME280;45870;42.528;26.740;2023-03-21T02:20:44;99636.78;;;12.77;55.92
60019;BME280;45870;42.528;26.740;2023-03-21T02:28:56;99646.59;;;12.45;57.04
60019;BME280;45870;42.528;26.740;2023-03-21T02:34:44;99646.81;;;12.60;56.77
60019;BME280;45870;42.528;26.740;2023-03-21T02:47:48;99639.28;;;10.87;62.85
60019;BME280;45870;42.528;26.740;2023-03-21T02:50:18;99627.53;;;11.33;61.73
60019;BME280;45870;42.528;26.740;2023-03-21T02:52:48;99628.03;;;11.59;60.83
60019;BME280;45870;42.528;26.740;2023-03-21T02:55:26;99618.69;;;11.10;62.21
60019;BME280;45870;42.528;26.740;2023-03-21T02:57:55;99619.59;;;10.52;64.08
60019;BME280;45870;42.528;26.740;2023-03-21T03:00:25;99604.38;;;10.23;64.67
60019;BME280;45870;42.528;26.740;2023-03-21T03:02:52;99607.97;;;10.75;63.50
60019;BME280;45870;42.528;26.740;2023-03-21T03:05:23;99599.94;;;10.91;62.84
60019;BME280;45870;42.528;26.740;2023-03-21T03:19:29;99613.22;;;12.39;57.65
60019;BME280;45870;42.528;26.740;2023-03-21T03:22:05;99604.63;;;12.09;58.87
60019;BME280;45870;42.528;26.740;2023-03-21T03:24:45;99614.28;;;12.05;59.19
60019;BME280;45870;42.528;26.740;2023-03-21T03:27:16;99595.03;;;12.95;56.03
60019;BME280;45870;42.528;26.740;2023-03-21T03:29:45;99610.06;;;12.64;56.99
60019;BME280;45870;42.528;26.740;2023-03-21T03:32:24;99617.00;;;12.22;58.01
60019;BME280;45870;42.528;26.740;2023-03-21T03:34:52;99623.16;;;12.34;57.74
60019;BME280;45870;42.528;26.740;2023-03-21T03:37:25;99544.28;;;11.75;57.82
60019;BME280;45870;42.528;26.740;2023-03-21T03:40:07;99615.88;;;13.60;54.22
60019;BME280;45870;42.528;26.740;2023-03-21T03:42:40;99611.72;;;13.52;53.79
60019;BME280;45870;42.528;26.740;2023-03-21T03:45:09;99602.81;;;12.31;56.77
60019;BME280;45870;42.528;26.740;2023-03-21T03:52:44;99533.91;;;11.56;58.66
60019;BME280;45870;42.528;26.740;2023-03-21T03:55:15;99592.00;;;11.98;58.53
60019;BME280;45870;42.528;26.740;2023-03-21T03:57:42;99597.44;;;12.53;57.13
60019;BME280;45870;42.528;26.740;2023-03-21T04:00:10;99584.69;;;12.70;56.11
60019;BME280;45870;42.528;26.740;2023-03-21T04:02:37;99610.50;;;12.39;57.17
60019;BME280;45870;42.528;26.740;2023-03-21T04:05:03;99606.75;;;12.40;57.14
60019;BME280;45870;42.528;26.740;2023-03-21T04:07:30;99609.72;;;12.61;56.81
60019;BME280;45870;42.528;26.740;2023-03-21T04:09:55;99609.56;;;12.67;57.15
60019;BME280;45870;42.528;26.740;2023-03-21T04:12:22;99607.13;;;12.66;57.01
60019;BME280;45870;42.528;26.740;2023-03-21T04:14:48;99614.81;;;12.57;57.59
60019;BME280;45870;42.528;26.740;2023-03-21T04:17:14;99618.13;;;12.42;58.78
60019;BME280;45870;42.528;26.740;2023-03-21T04:19:40;99606.63;;;12.90;57.09
60019;BME280;45870;42.528;26.740;2023-03-21T04:22:06;99610.94;;;12.31;58.97
60019;BME280;45870;42.528;26.740;2023-03-21T04:24:31;99620.03;;;13.02;56.53
60019;BME280;45870;42.528;26.740;2023-03-21T04:26:59;99621.47;;;13.75;54.68
60019;BME280;45870;42.528;26.740;2023-03-21T04:29:25;99625.09;;;12.93;57.39
60019;BME280;45870;42.528;26.740;2023-03-21T04:31:54;99619.75;;;14.27;53.55
60019;BME280;45870;42.528;26.740;2023-03-21T04:34:20;99638.09;;;14.89;51.37
60019;BME280;45870;42.528;26.740;2023-03-21T04:36:48;99637.94;;;13.68;54.50
60019;BME280;45870;42.528;26.740;2023-03-21T04:39:16;99619.53;;;14.02;53.20
60019;BME280;45870;42.528;26.740;2023-03-21T04:41:44;99643.81;;;14.14;53.67
60019;BME280;45870;42.528;26.740;2023-03-21T04:44:12;99645.13;;;14.80;51.78
60019;BME280;45870;42.528;26.740;2023-03-21T04:46:38;99645.03;;;14.33;52.63
60019;BME280;45870;42.528;26.740;2023-03-21T04:49:05;99608.91;;;14.32;52.85
60019;BME280;45870;42.528;26.740;2023-03-21T04:51:32;99611.38;;;14.71;51.85
60019;BME280;45870;42.528;26.740;2023-03-21T04:53:57;99651.84;;;13.50;55.41
60019;BME280;45870;42.528;26.740;2023-03-21T04:56:25;99648.53;;;13.96;53.51
60019;BME280;45870;42.528;26.740;2023-03-21T04:58:57;99644.75;;;13.22;54.47
60019;BME280;45870;42.528;26.740;2023-03-21T05:01:24;99648.56;;;12.88;55.44
60019;BME280;45870;42.528;26.740;2023-03-21T05:03:50;99651.09;;;13.11;54.02
60019;BME280;45870;42.528;26.740;2023-03-21T05:06:17;99659.72;;;13.51;53.14
60019;BME280;45870;42.528;26.740;2023-03-21T05:08:43;99605.50;;;13.08;52.60
60019;BME280;45870;42.528;26.740;2023-03-21T05:11:08;99654.00;;;13.75;51.89
60019;BME280;45870;42.528;26.740;2023-03-21T05:13:34;99616.63;;;13.28;52.78
60019;BME280;45870;42.528;26.740;2023-03-21T05:15:59;99644.03;;;11.88;56.55
60019;BME280;45870;42.528;26.740;2023-03-21T05:18:25;99634.13;;;12.44;55.60
60019;BME280;45870;42.528;26.740;2023-03-21T05:20:53;99644.16;;;12.10;56.62
60019;BME280;45870;42.528;26.740;2023-03-21T05:23:20;99637.75;;;11.99;56.34
60019;BME280;45870;42.528;26.740;2023-03-21T05:25:46;99593.72;;;11.87;56.11
60019;BME280;45870;42.528;26.740;2023-03-21T05:28:12;99644.56;;;12.52;55.17
60019;BME280;45870;42.528;26.740;2023-03-21T05:30:38;99643.13;;;13.05;53.92
60019;BME280;45870;42.528;26.740;2023-03-21T05:33:04;99654.50;;;13.98;51.03
60019;BME280;45870;42.528;26.740;2023-03-21T05:35:30;99601.25;;;14.56;48.34
60019;BME280;45870;42.528;26.740;2023-03-21T05:37:56;99654.75;;;15.02;48.79
60019;BME280;45870;42.528;26.740;2023-03-21T05:40:22;99652.88;;;15.03;48.94
60019;BME280;45870;42.528;26.740;2023-03-21T05:42:48;99663.19;;;15.01;49.01
60019;BME280;45870;42.528;26.740;2023-03-21T05:45:14;99662.16;;;14.33;50.49
60019;BME280;45870;42.528;26.740;2023-03-21T05:47:40;99660.66;;;14.84;49.94
60019;BME280;45870;42.528;26.740;2023-03-21T05:50:07;99464.44;;;13.83;48.98
60019;BME280;45870;42.528;26.740;2023-03-21T05:52:33;99646.84;;;14.22;50.89
60019;BME280;45870;42.528;26.740;2023-03-21T05:54:58;99674.56;;;14.24;52.17
60019;BME280;45870;42.528;26.740;2023-03-21T05:57:24;99679.84;;;14.36;51.55
60019;BME280;45870;42.528;26.740;2023-03-21T05:59:53;99682.97;;;14.23;52.57
60019;BME280;45870;42.528;26.740;2023-03-21T06:02:19;99654.00;;;13.75;54.25
60019;BME280;45870;42.528;26.740;2023-03-21T06:04:45;99649.78;;;13.35;55.57
60019;BME280;45870;42.528;26.740;2023-03-21T06:07:11;99660.00;;;13.77;55.28
60019;BME280;45870;42.528;26.740;2023-03-21T06:09:36;99607.19;;;12.92;56.62
60019;BME280;45870;42.528;26.740;2023-03-21T06:12:02;99657.16;;;13.40;56.50
60019;BME280;45870;42.528;26.740;2023-03-21T06:14:27;99665.13;;;13.51;56.22
60019;BME280;45870;42.528;26.740;2023-03-21T06:16:53;99661.56;;;13.46;55.74
60019;BME280;45870;42.528;26.740;2023-03-21T06:19:19;99642.13;;;12.72;58.81
60019;BME280;45870;42.528;26.740;2023-03-21T06:21:46;99532.09;;;12.06;58.61
60019;BME280;45870;42.528;26.740;2023-03-21T06:24:12;99653.78;;;13.55;56.80
60019;BME280;45870;42.528;26.740;2023-03-21T06:26:38;99662.63;;;14.25;54.79
60019;BME280;45870;42.528;26.740;2023-03-21T06:29:03;99634.13;;;13.42;56.25
60019;BME280;45870;42.528;26.740;2023-03-21T06:31:30;99660.31;;;13.32;57.66
60019;BME280;45870;42.528;26.740;2023-03-21T06:33:56;99642.88;;;13.49;58.43
60019;BME280;45870;42.528;26.740;2023-03-21T06:36:21;99641.31;;;13.54;58.18
60019;BME280;45870;42.528;26.740;2023-03-21T06:38:47;99649.03;;;14.57;55.60
60019;BME280;45870;42.528;26.740;2023-03-21T06:41:13;99621.50;;;14.07;55.53
60019;BME280;45870;42.528;26.740;2023-03-21T06:43:39;99653.22;;;14.70;55.04
60019;BME280;45870;42.528;26.740;2023-03-21T06:46:05;99641.72;;;14.26;55.97
60019;BME280;45870;42.528;26.740;2023-03-21T06:48:31;99608.34;;;15.14;53.48
60019;BME280;45870;42.528;26.740;2023-03-21T06:50:57;99629.66;;;14.38;56.73
60019;BME280;45870;42.528;26.740;2023-03-21T06:53:24;99644.47;;;15.05;54.54
60019;BME280;45870;42.528;26.740;2023-03-21T06:55:55;99650.25;;;15.23;53.41
60019;BME280;45870;42.528;26.740;2023-03-21T06:58:22;99643.84;;;15.49;52.80
60019;BME280;45870;42.528;26.740;2023-03-21T07:00:47;99652.13;;;16.50;50.33
60019;BME280;45870;42.528;26.740;2023-03-21T07:03:14;99642.59;;;16.88;49.70
60019;BME280;45870;42.528;26.740;2023-03-21T07:05:40;99670.38;;;16.85;50.07
60019;BME280;45870;42.528;26.740;2023-03-21T07:08:06;99620.94;;;17.27;48.38
60019;BME280;45870;42.528;26.740;2023-03-21T07:10:38;99664.00;;;17.30;49.72
60019;BME280;45870;42.528;26.740;2023-03-21T07:13:05;99658.81;;;17.93;47.76
60019;BME280;45870;42.528;26.740;2023-03-21T07:15:31;99662.31;;;18.71;45.61
60019;BME280;45870;42.528;26.740;2023-03-21T07:17:58;99665.69;;;19.63;43.28
60019;BME280;45870;42.528;26.740;2023-03-21T07:20:24;99668.44;;;20.01;42.76
60019;BME280;45870;42.528;26.740;2023-03-21T07:22:51;99667.56;;;20.88;41.84
60019;BME280;45870;42.528;26.740;2023-03-21T07:25:17;99659.84;;;19.22;45.23
60019;BME280;45870;42.528;26.740;2023-03-21T07:27:44;99666.69;;;19.67;44.28
60019;BME280;45870;42.528;26.740;2023-03-21T07:30:11;99640.63;;;19.51;44.38
60019;BME280;45870;42.528;26.740;2023-03-21T07:32:37;99645.22;;;20.30;44.13
60019;BME280;45870;42.528;26.740;2023-03-21T07:35:07;99604.03;;;20.17;43.10
60019;BME280;45870;42.528;26.740;2023-03-21T07:37:33;99660.66;;;19.89;44.19
60019;BME280;45870;42.528;26.740;2023-03-21T07:39:59;99663.09;;;21.61;40.89
60019;BME280;45870;42.528;26.740;2023-03-21T07:42:24;99654.72;;;20.19;42.08
60019;BME280;45870;42.528;26.740;2023-03-21T07:44:50;99585.75;;;19.80;42.96
60019;BME280;45870;42.528;26.740;2023-03-21T07:47:17;99656.50;;;20.29;42.21
60019;BME280;45870;42.528;26.740;2023-03-21T07:49:42;99668.66;;;21.97;39.52
60019;BME280;45870;42.528;26.740;2023-03-21T07:52:08;99676.81;;;21.74;39.95
60019;BME280;45870;42.528;26.740;2023-03-21T07:54:33;99669.88;;;20.95;40.81
60019;BME280;45870;42.528;26.740;2023-03-21T07:56:59;99659.78;;;20.12;43.33
60019;BME280;45870;42.528;26.740;2023-03-21T07:59:25;99662.09;;;18.63;46.52
60019;BME280;45870;42.528;26.740;2023-03-21T08:01:50;99591.28;;;19.75;43.18
60019;BME280;45870;42.528;26.740;2023-03-21T08:04:16;99651.66;;;20.02;43.34
60019;BME280;45870;42.528;26.740;2023-03-21T08:06:42;99656.72;;;20.14;42.99
60019;BME280;45870;42.528;26.740;2023-03-21T08:09:08;99666.34;;;22.48;38.67
60019;BME280;45870;42.528;26.740;2023-03-21T08:11:34;99646.31;;;23.49;36.07
60019;BME280;45870;42.528;26.740;2023-03-21T08:14:00;99672.19;;;23.00;36.34
60019;BME280;45870;42.528;26.740;2023-03-21T08:16:26;99673.91;;;21.71;38.94
60019;BME280;45870;42.528;26.740;2023-03-21T08:18:52;99669.03;;;22.62;37.08
60019;BME280;45870;42.528;26.740;2023-03-21T08:21:18;99666.34;;;24.66;33.83
60019;BME280;45870;42.528;26.740;2023-03-21T08:23:43;99666.28;;;25.38;32.05
60019;BME280;45870;42.528;26.740;2023-03-21T08:26:09;99669.13;;;25.59;32.53
60019;BME280;45870;42.528;26.740;2023-03-21T08:28:35;99665.25;;;22.80;37.22
60019;BME280;45870;42.528;26.740;2023-03-21T08:31:09;99672.94;;;21.89;38.85
60019;BME280;45870;42.528;26.740;2023-03-21T08:33:35;99663.31;;;21.92;39.04
60019;BME280;45870;42.528;26.740;2023-03-21T08:36:02;99671.00;;;21.08;41.11
60019;BME280;45870;42.528;26.740;2023-03-21T08:38:28;99669.88;;;20.81;40.65
60019;BME280;45870;42.528;26.740;2023-03-21T08:40:55;99667.59;;;21.43;40.02
60019;BME280;45870;42.528;26.740;2023-03-21T08:43:22;99673.69;;;21.95;39.87
60019;BME280;45870;42.528;26.740;2023-03-21T08:45:48;99665.47;;;20.67;42.11
60019;BME280;45870;42.528;26.740;2023-03-21T08:48:14;99666.59;;;23.13;37.54
60019;BME280;45870;42.528;26.740;2023-03-21T08:50:40;99667.09;;;21.55;39.02
60019;BME280;45870;42.528;26.740;2023-03-21T08:53:05;99659.78;;;21.64;39.43
60019;BME280;45870;42.528;26.740;2023-03-21T08:55:31;99660.47;;;23.64;35.29
60019;BME280;45870;42.528;26.740;2023-03-21T08:57:58;99642.84;;;22.95;37.18
60019;BME280;45870;42.528;26.740;2023-03-21T09:00:24;99660.03;;;23.31;35.23
60019;BME280;45870;42.528;26.740;2023-03-21T09:02:50;99656.94;;;23.98;34.46
60019;BME280;45870;42.528;26.740;2023-03-21T09:05:17;99648.03;;;22.21;39.25
60019;BME280;45870;42.528;26.740;2023-03-21T09:07:44;99646.03;;;20.50;42.38
60019;BME280;45870;42.528;26.740;2023-03-21T09:10:14;99640.81;;;19.60;44.10
60019;BME280;45870;42.528;26.740;2023-03-21T09:12:40;99639.47;;;19.76;43.28
60019;BME280;45870;42.528;26.740;2023-03-21T09:15:08;99647.38;;;21.88;38.69
60019;BME280;45870;42.528;26.740;2023-03-21T09:17:34;99644.63;;;24.56;34.10
60019;BME280;45870;42.528;26.740;2023-03-21T09:20:01;99645.53;;;23.65;35.74
60019;BME280;45870;42.528;26.740;2023-03-21T09:22:37;99636.34;;;25.11;33.28
60019;BME280;45870;42.528;26.740;2023-03-21T09:25:03;99626.69;;;24.79;34.19
60019;BME280;45870;42.528;26.740;2023-03-21T09:27:32;99626.19;;;24.94;34.39
60019;BME280;45870;42.528;26.740;2023-03-21T09:29:58;99612.41;;;24.85;34.10
60019;BME280;45870;42.528;26.740;2023-03-21T09:32:25;99615.34;;;24.80;33.14
60019;BME280;45870;42.528;26.740;2023-03-21T09:34:52;99611.38;;;24.09;35.25
60019;BME280;45870;42.528;26.740;2023-03-21T09:37:20;99609.81;;;24.80;33.73
60019;BME280;45870;42.528;26.740;2023-03-21T09:39:46;99606.50;;;25.33;32.76
60019;BME280;45870;42.528;26.740;2023-03-21T09:42:42;99609.59;;;23.22;37.71
60019;BME280;45870;42.528;26.740;2023-03-21T09:45:19;99603.66;;;21.15;42.64
60019;BME280;45870;42.528;26.740;2023-03-21T09:47:48;99360.94;;;21.30;39.02
60019;BME280;45870;42.528;26.740;2023-03-21T09:50:19;99605.59;;;23.37;37.38
60019;BME280;45870;42.528;26.740;2023-03-21T09:52:59;99595.19;;;20.98;41.76
60019;BME280;45870;42.528;26.740;2023-03-21T09:55:33;99597.88;;;20.43;42.65
60019;BME280;45870;42.528;26.740;2023-03-21T09:58:35;99596.03;;;24.63;35.00
60019;BME280;45870;42.528;26.740;2023-03-21T10:01:16;99591.59;;;24.97;34.17
60019;BME280;45870;42.528;26.740;2023-03-21T10:04:03;99595.13;;;25.35;33.40
60019;BME280;45870;42.528;26.740;2023-03-21T10:06:30;99586.06;;;23.90;35.47
60019;BME280;45870;42.528;26.740;2023-03-21T10:09:05;99547.47;;;24.71;34.91
60019;BME280;45870;42.528;26.740;2023-03-21T10:11:45;99586.41;;;22.00;39.19
60019;BME280;45870;42.528;26.740;2023-03-21T10:14:27;99521.13;;;24.91;33.67
60019;BME280;45870;42.528;26.740;2023-03-21T10:17:01;99583.50;;;26.12;32.22
60019;BME280;45870;42.528;26.740;2023-03-21T10:19:29;99579.38;;;24.43;36.04
60019;BME280;45870;42.528;26.740;2023-03-21T10:21:55;99536.25;;;25.14;33.54
60019;BME280;45870;42.528;26.740;2023-03-21T10:24:24;99580.09;;;25.74;33.76
60019;BME280;45870;42.528;26.740;2023-03-21T10:26:52;99577.06;;;25.08;35.97
60019;BME280;45870;42.528;26.740;2023-03-21T10:29:22;99572.78;;;24.09;36.45
60019;BME280;45870;42.528;26.740;2023-03-21T10:31:50;99572.59;;;23.97;36.53
60019;BME280;45870;42.528;26.740;2023-03-21T10:34:25;99572.63;;;25.16;33.82
60019;BME280;45870;42.528;26.740;2023-03-21T10:36:53;99570.13;;;26.92;31.02
60019;BME280;45870;42.528;26.740;2023-03-21T10:39:34;99562.13;;;26.01;33.06
60019;BME280;45870;42.528;26.740;2023-03-21T10:42:02;99565.94;;;27.71;29.17
60019;BME280;45870;42.528;26.740;2023-03-21T10:44:33;99575.91;;;27.36;30.83
60019;BME280;45870;42.528;26.740;2023-03-21T10:47:05;99571.53;;;28.26;28.48
60019;BME280;45870;42.528;26.740;2023-03-21T10:49:31;99568.66;;;26.17;31.67
60019;BME280;45870;42.528;26.740;2023-03-21T10:52:01;99558.91;;;28.01;29.41
60019;BME280;45870;42.528;26.740;2023-03-21T10:54:28;99558.63;;;28.62;28.17
60019;BME280;45870;42.528;26.740;2023-03-21T10:57:00;99562.75;;;29.15;26.86
60019;BME280;45870;42.528;26.740;2023-03-21T10:59:35;99555.75;;;28.43;27.97
60019;BME280;45870;42.528;26.740;2023-03-21T11:02:04;99552.28;;;28.18;28.39
60019;BME280;45870;42.528;26.740;2023-03-21T11:04:31;99517.44;;;25.78;32.03
60019;BME280;45870;42.528;26.740;2023-03-21T11:07:00;99515.44;;;27.01;29.77
60019;BME280;45870;42.528;26.740;2023-03-21T11:09:47;99551.84;;;28.91;27.73
60019;BME280;45870;42.528;26.740;2023-03-21T11:12:15;99545.13;;;28.17;27.41
60019;BME280;45870;42.528;26.740;2023-03-21T11:14:44;99543.53;;;28.47;27.21
60019;BME280;45870;42.528;26.740;2023-03-21T11:19:58;99532.84;;;28.93;27.38
60019;BME280;45870;42.528;26.740;2023-03-21T11:22:28;99379.31;;;26.26;29.77
60019;BME280;45870;42.528;26.740;2023-03-21T11:24:59;99493.06;;;26.82;29.81
60019;BME280;45870;42.528;26.740;2023-03-21T11:27:30;99524.19;;;28.51;27.93
60019;BME280;45870;42.528;26.740;2023-03-21T11:29:57;99523.41;;;29.29;25.35
60019;BME280;45870;42.528;26.740;2023-03-21T11:32:33;99524.56;;;29.27;26.00
60019;BME280;45870;42.528;26.740;2023-03-21T11:35:18;99516.72;;;28.67;26.91
60019;BME280;45870;42.528;26.740;2023-03-21T11:37:49;99520.53;;;30.59;23.69
60019;BME280;45870;42.528;26.740;2023-03-21T11:40:28;99496.78;;;30.23;24.26
60019;BME280;45870;42.528;26.740;2023-03-21T11:45:56;99507.91;;;28.96;26.59
60019;BME280;45870;42.528;26.740;2023-03-21T11:48:23;99499.56;;;28.34;28.04
60019;BME280;45870;42.528;26.740;2023-03-21T11:50:58;99479.94;;;26.22;30.20
60019;BME280;45870;42.528;26.740;2023-03-21T11:53:44;99501.34;;;28.26;27.65
60019;BME280;45870;42.528;26.740;2023-03-21T12:01:36;99497.75;;;27.70;29.33
60019;BME280;45870;42.528;26.740;2023-03-21T12:04:39;99493.44;;;26.36;32.91
60019;BME280;45870;42.528;26.740;2023-03-21T12:35:07;99445.16;;;27.58;28.68
60019;BME280;45870;42.528;26.740;2023-03-21T12:37:50;99442.59;;;26.28;30.44
60019;BME280;45870;42.528;26.740;2023-03-21T12:43:26;99429.69;;;27.45;29.76
60019;BME280;45870;42.528;26.740;2023-03-21T12:46:00;99416.28;;;25.65;32.86
60019;BME280;45870;42.528;26.740;2023-03-21T12:51:10;99408.06;;;26.01;31.44
60019;BME280;45870;42.528;26.740;2023-03-21T12:56:37;99408.88;;;27.11;28.91
60019;BME280;45870;42.528;26.740;2023-03-21T13:01:39;99412.25;;;26.80;29.10
60019;BME280;45870;42.528;26.740;2023-03-21T13:04:20;99408.84;;;25.57;31.75
60019;BME280;45870;42.528;26.740;2023-03-21T13:06:55;99374.81;;;25.23;33.41
60019;BME280;45870;42.528;26.740;2023-03-21T13:09:39;99356.53;;;24.19;33.86
60019;BME280;45870;42.528;26.740;2023-03-21T13:15:10;99384.13;;;26.54;31.70
60019;BME280;45870;42.528;26.740;2023-03-21T13:17:47;99377.84;;;25.51;32.01
60019;BME280;45870;42.528;26.740;2023-03-21T13:20:34;99364.47;;;24.20;35.08
60019;BME280;45870;42.528;26.740;2023-03-21T13:23:01;99336.75;;;23.62;36.33
60019;BME280;45870;42.528;26.740;2023-03-21T13:25:30;99370.34;;;23.29;37.12
60019;BME280;45870;42.528;26.740;2023-03-21T13:28:02;99359.75;;;22.54;39.40
60019;BME280;45870;42.528;26.740;2023-03-21T13:30:31;99350.38;;;22.47;39.37
60019;BME280;45870;42.528;26.740;2023-03-21T13:33:09;99350.59;;;23.36;37.91
60019;BME280;45870;42.528;26.740;2023-03-21T13:35:39;99349.78;;;23.01;39.93
60019;BME280;45870;42.528;26.740;2023-03-21T13:38:25;99344.72;;;22.60;41.11
60019;BME280;45870;42.528;26.740;2023-03-21T13:46:35;99362.16;;;21.68;42.85
60019;BME280;45870;42.528;26.740;2023-03-21T13:59:34;99361.59;;;19.41;48.70
60019;BME280;45870;42.528;26.740;2023-03-21T14:02:16;99368.09;;;19.45;48.86
60019;BME280;45870;42.528;26.740;2023-03-21T14:04:45;99354.66;;;19.11;49.65
60019;BME280;45870;42.528;26.740;2023-03-21T14:07:22;99353.75;;;19.16;49.31
60019;BME280;45870;42.528;26.740;2023-03-21T14:09:52;99360.69;;;19.27;49.52
60019;BME280;45870;42.528;26.740;2023-03-21T14:12:23;99362.84;;;19.11;49.72
60019;BME280;45870;42.528;26.740;2023-03-21T14:14:58;99357.59;;;19.66;48.84
60019;BME280;45870;42.528;26.740;2023-03-21T14:17:32;99355.44;;;18.61;50.62
60019;BME280;45870;42.528;26.740;2023-03-21T14:22:34;99362.63;;;18.52;51.25
60019;BME280;45870;42.528;26.740;2023-03-21T14:25:01;99355.03;;;18.25;51.31
60019;BME280;45870;42.528;26.740;2023-03-21T14:27:32;99356.41;;;18.04;51.71
60019;BME280;45870;42.528;26.740;2023-03-21T14:30:00;99345.97;;;17.24;53.68
60019;BME280;45870;42.528;26.740;2023-03-21T14:32:28;99162.81;;;16.60;52.82
60019;BME280;45870;42.528;26.740;2023-03-21T14:34:55;99348.56;;;17.39;53.05
60019;BME280;45870;42.528;26.740;2023-03-21T14:37:36;99353.50;;;16.65;54.95
60019;BME280;45870;42.528;26.740;2023-03-21T14:40:05;99333.53;;;16.25;55.74
60019;BME280;45870;42.528;26.740;2023-03-21T14:42:36;99317.91;;;16.41;55.27
60019;BME280;45870;42.528;26.740;2023-03-21T14:48:00;99302.91;;;16.43;55.17
60019;BME280;45870;42.528;26.740;2023-03-21T14:50:50;99320.19;;;16.29;55.12
60019;BME280;45870;42.528;26.740;2023-03-21T14:53:32;99286.44;;;16.25;53.74
60019;BME280;45870;42.528;26.740;2023-03-21T14:56:05;99341.97;;;16.78;50.88